Main page
METAR-TAF:

METAR-TAF

Airports :

Olsztyn-Mazury Airport

Olsztyn, Poland

latitude: 53-28-55N, longitude: 20-56-16E, elevation: 141 m

Current weather observation

The report was made 34 minutes ago, at 10:00 UTC
Wind 5 kt from the West/Southwest, varying between South/Southwest and West/Northwest
Temperature 5°C
Humidity 75%
Pressure 1019 hPa
Visibility 10 km or more
Scattered clouds at a height of 1300 ft
Broken clouds at a height of 3200 ft

METAR: EPSY 201000Z 25005KT 210V290 9999 SCT013 BKN032 05/01 Q1019

Time: 11:34 (10:34 UTC)

Forecast

The report was made 2 hours and 4 minutes ago, at 08:30 UTC
Forecast valid from 20 at 09 UTC to 20 at 18 UTC
Wind 7 kt from the West
Visibility 10 km or more
Broken clouds at a height of 2500 ft
Temporary
from 20 at 09 UTC to 20 at 12 UTC
Broken clouds at a height of 1000 ft

TAF: EPSY 200830Z 2009/2018 26007KT 9999 BKN025 TEMPO 2009/2012 BKN010

Weather observations and forecasts of more than 4000 airports (METAR and TAF reports).

The available stations are represented by yellow and red dots on the map.

Hover mouse over dot to see the name of the station.

Then click to see weather observations and forecasts.

To change the map : click on the green buttons with a black cross to zoom in, on the green button with a dash to zoom out, or on the green arrows for adjacent maps.


METAR-TAF: